Terminal Aerodrome Forecast
Issued by NWS Charleston, SC

Home | Current Version | Previous Version | Text Only | Print | Product List | Glossary On
Versions: 1 2 3 4 5 6 7 8 9 10 11 12 13 14 15 16 17 18
000
FTUS42 KCHS 061604 AAA
TAFCHS
TAF AMD
KCHS 061604Z 0616/0712 20006KT 3SM -SHRA SCT006 OVC020
     FM061800 21014G21KT P6SM SHRA BKN008
     FM062000 26013G20KT P6SM SCT010
     FM062300 28007KT P6SM FEW020
     FM070600 32003KT 5SM BR SCT010=

USA.gov is the U.S. government's official web portal to all federal, state and local government web resources and services.